sensor_id;sensor_type;location;lat;lon;timestamp;P1;durP1;ratioP1;P2;durP2;ratioP2
17670;SDS011;8954;48.694;8.940;2022-09-12T00:01:58;235.10;;;75.60;;
17670;SDS011;8954;48.694;8.940;2022-09-12T00:04:23;236.00;;;77.50;;
17670;SDS011;8954;48.694;8.940;2022-09-12T00:06:52;235.53;;;76.03;;
17670;SDS011;8954;48.694;8.940;2022-09-12T00:09:17;233.77;;;74.27;;
17670;SDS011;8954;48.694;8.940;2022-09-12T00:11:44;236.87;;;76.73;;
17670;SDS011;8954;48.694;8.940;2022-09-12T00:14:11;233.67;;;74.63;;
17670;SDS011;8954;48.694;8.940;2022-09-12T00:16:39;238.77;;;76.97;;
17670;SDS011;8954;48.694;8.940;2022-09-12T00:19:05;233.70;;;75.00;;
17670;SDS011;8954;48.694;8.940;2022-09-12T00:21:32;238.60;;;77.60;;
17670;SDS011;8954;48.694;8.940;2022-09-12T00:24:00;237.03;;;76.50;;
17670;SDS011;8954;48.694;8.940;2022-09-12T00:26:26;236.63;;;76.73;;
17670;SDS011;8954;48.694;8.940;2022-09-12T00:28:51;235.97;;;77.10;;
17670;SDS011;8954;48.694;8.940;2022-09-12T00:31:18;235.70;;;75.93;;
17670;SDS011;8954;48.694;8.940;2022-09-12T00:33:48;230.77;;;73.53;;
17670;SDS011;8954;48.694;8.940;2022-09-12T00:36:20;235.03;;;76.27;;
17670;SDS011;8954;48.694;8.940;2022-09-12T00:38:48;234.10;;;73.33;;
17670;SDS011;8954;48.694;8.940;2022-09-12T00:43:51;231.57;;;72.37;;
17670;SDS011;8954;48.694;8.940;2022-09-12T00:46:43;236.23;;;74.87;;
17670;SDS011;8954;48.694;8.940;2022-09-12T00:51:42;238.47;;;75.97;;
17670;SDS011;8954;48.694;8.940;2022-09-12T00:54:13;232.07;;;72.43;;
17670;SDS011;8954;48.694;8.940;2022-09-12T00:56:44;230.53;;;72.47;;
17670;SDS011;8954;48.694;8.940;2022-09-12T00:59:16;232.60;;;72.63;;
17670;SDS011;8954;48.694;8.940;2022-09-12T01:01:46;232.67;;;74.10;;
17670;SDS011;8954;48.694;8.940;2022-09-12T01:04:14;231.20;;;72.37;;
17670;SDS011;8954;48.694;8.940;2022-09-12T01:06:42;233.97;;;75.40;;
17670;SDS011;8954;48.694;8.940;2022-09-12T01:09:12;230.93;;;72.37;;
17670;SDS011;8954;48.694;8.940;2022-09-12T01:11:41;233.47;;;74.07;;
17670;SDS011;8954;48.694;8.940;2022-09-12T01:14:10;228.43;;;72.00;;
17670;SDS011;8954;48.694;8.940;2022-09-12T01:16:36;226.50;;;71.20;;
17670;SDS011;8954;48.694;8.940;2022-09-12T01:21:59;227.83;;;71.53;;
17670;SDS011;8954;48.694;8.940;2022-09-12T01:33:35;233.50;;;72.67;;
17670;SDS011;8954;48.694;8.940;2022-09-12T01:36:27;230.83;;;70.17;;
17670;SDS011;8954;48.694;8.940;2022-09-12T01:39:05;229.80;;;69.93;;
17670;SDS011;8954;48.694;8.940;2022-09-12T01:47:13;231.13;;;71.20;;
17670;SDS011;8954;48.694;8.940;2022-09-12T01:50:02;232.43;;;71.63;;
17670;SDS011;8954;48.694;8.940;2022-09-12T02:00:43;231.57;;;73.17;;
17670;SDS011;8954;48.694;8.940;2022-09-12T02:03:26;231.57;;;71.50;;
17670;SDS011;8954;48.694;8.940;2022-09-12T02:09:09;226.40;;;69.47;;
17670;SDS011;8954;48.694;8.940;2022-09-12T02:12:00;231.23;;;70.97;;
17670;SDS011;8954;48.694;8.940;2022-09-12T02:14:28;228.70;;;69.87;;
17670;SDS011;8954;48.694;8.940;2022-09-12T02:17:16;226.63;;;69.17;;
17670;SDS011;8954;48.694;8.940;2022-09-12T02:19:55;227.93;;;71.40;;
17670;SDS011;8954;48.694;8.940;2022-09-12T02:22:44;225.87;;;68.07;;
17670;SDS011;8954;48.694;8.940;2022-09-12T02:25:14;224.47;;;68.60;;
17670;SDS011;8954;48.694;8.940;2022-09-12T02:27:44;231.30;;;71.87;;
17670;SDS011;8954;48.694;8.940;2022-09-12T02:30:17;225.43;;;68.97;;
17670;SDS011;8954;48.694;8.940;2022-09-12T02:38:23;230.07;;;71.67;;
17670;SDS011;8954;48.694;8.940;2022-09-12T02:40:57;224.97;;;67.80;;
17670;SDS011;8954;48.694;8.940;2022-09-12T02:43:23;222.70;;;68.13;;
17670;SDS011;8954;48.694;8.940;2022-09-12T02:45:49;228.13;;;72.20;;
17670;SDS011;8954;48.694;8.940;2022-09-12T02:48:25;227.60;;;72.07;;
17670;SDS011;8954;48.694;8.940;2022-09-12T02:50:54;225.27;;;68.97;;
17670;SDS011;8954;48.694;8.940;2022-09-12T02:53:20;229.13;;;73.00;;
17670;SDS011;8954;48.694;8.940;2022-09-12T02:55:46;224.87;;;70.03;;
17670;SDS011;8954;48.694;8.940;2022-09-12T02:58:17;224.80;;;70.43;;
17670;SDS011;8954;48.694;8.940;2022-09-12T03:00:50;230.70;;;73.27;;
17670;SDS011;8954;48.694;8.940;2022-09-12T03:09:10;219.77;;;66.77;;
17670;SDS011;8954;48.694;8.940;2022-09-12T03:17:18;225.53;;;70.07;;
17670;SDS011;8954;48.694;8.940;2022-09-12T03:20:00;230.33;;;71.63;;
17670;SDS011;8954;48.694;8.940;2022-09-12T03:22:49;220.63;;;67.23;;
17670;SDS011;8954;48.694;8.940;2022-09-12T03:30:43;225.10;;;71.67;;
17670;SDS011;8954;48.694;8.940;2022-09-12T03:33:14;216.13;;;67.70;;
17670;SDS011;8954;48.694;8.940;2022-09-12T03:35:42;221.13;;;68.13;;
17670;SDS011;8954;48.694;8.940;2022-09-12T03:38:09;217.57;;;66.57;;
17670;SDS011;8954;48.694;8.940;2022-09-12T03:40:35;231.30;;;75.40;;
17670;SDS011;8954;48.694;8.940;2022-09-12T03:43:02;218.80;;;66.90;;
17670;SDS011;8954;48.694;8.940;2022-09-12T03:45:31;220.90;;;68.30;;
17670;SDS011;8954;48.694;8.940;2022-09-12T03:47:58;219.00;;;67.53;;
17670;SDS011;8954;48.694;8.940;2022-09-12T03:50:24;221.10;;;68.17;;
17670;SDS011;8954;48.694;8.940;2022-09-12T03:52:50;221.20;;;67.13;;
17670;SDS011;8954;48.694;8.940;2022-09-12T03:55:15;222.20;;;68.67;;
17670;SDS011;8954;48.694;8.940;2022-09-12T03:57:41;225.00;;;69.47;;
17670;SDS011;8954;48.694;8.940;2022-09-12T04:00:07;220.60;;;68.43;;
17670;SDS011;8954;48.694;8.940;2022-09-12T04:02:33;219.37;;;67.80;;
17670;SDS011;8954;48.694;8.940;2022-09-12T04:04:59;221.00;;;68.30;;
17670;SDS011;8954;48.694;8.940;2022-09-12T04:07:25;222.17;;;68.67;;
17670;SDS011;8954;48.694;8.940;2022-09-12T04:09:51;216.40;;;65.77;;
17670;SDS011;8954;48.694;8.940;2022-09-12T04:12:18;222.53;;;69.87;;
17670;SDS011;8954;48.694;8.940;2022-09-12T04:14:44;221.83;;;68.33;;
17670;SDS011;8954;48.694;8.940;2022-09-12T04:17:09;218.47;;;67.13;;
17670;SDS011;8954;48.694;8.940;2022-09-12T04:19:35;220.77;;;68.77;;
17670;SDS011;8954;48.694;8.940;2022-09-12T04:22:01;220.67;;;68.23;;
17670;SDS011;8954;48.694;8.940;2022-09-12T04:24:27;223.40;;;69.10;;
17670;SDS011;8954;48.694;8.940;2022-09-12T04:26:53;221.00;;;68.07;;
17670;SDS011;8954;48.694;8.940;2022-09-12T04:29:18;219.47;;;67.63;;
17670;SDS011;8954;48.694;8.940;2022-09-12T04:31:44;225.70;;;71.33;;
17670;SDS011;8954;48.694;8.940;2022-09-12T04:34:10;218.87;;;67.40;;
17670;SDS011;8954;48.694;8.940;2022-09-12T04:36:35;216.13;;;65.53;;
17670;SDS011;8954;48.694;8.940;2022-09-12T04:39:02;221.73;;;67.70;;
17670;SDS011;8954;48.694;8.940;2022-09-12T04:41:32;219.47;;;66.53;;
17670;SDS011;8954;48.694;8.940;2022-09-12T04:44:00;218.13;;;66.33;;
17670;SDS011;8954;48.694;8.940;2022-09-12T04:46:29;216.53;;;64.93;;
17670;SDS011;8954;48.694;8.940;2022-09-12T04:48:58;218.97;;;65.50;;
17670;SDS011;8954;48.694;8.940;2022-09-12T04:51:28;217.67;;;66.80;;
17670;SDS011;8954;48.694;8.940;2022-09-12T04:53:56;222.97;;;68.10;;
17670;SDS011;8954;48.694;8.940;2022-09-12T04:56:25;220.87;;;66.70;;
17670;SDS011;8954;48.694;8.940;2022-09-12T04:58:51;217.70;;;65.70;;
17670;SDS011;8954;48.694;8.940;2022-09-12T05:01:19;224.07;;;69.63;;
17670;SDS011;8954;48.694;8.940;2022-09-12T05:03:46;224.47;;;68.23;;
17670;SDS011;8954;48.694;8.940;2022-09-12T05:06:18;222.50;;;68.73;;
17670;SDS011;8954;48.694;8.940;2022-09-12T05:08:49;222.00;;;67.70;;
17670;SDS011;8954;48.694;8.940;2022-09-12T05:11:17;224.93;;;69.70;;
17670;SDS011;8954;48.694;8.940;2022-09-12T05:13:45;219.57;;;65.60;;
17670;SDS011;8954;48.694;8.940;2022-09-12T05:16:11;223.37;;;68.03;;
17670;SDS011;8954;48.694;8.940;2022-09-12T05:18:39;218.57;;;65.87;;
17670;SDS011;8954;48.694;8.940;2022-09-12T05:21:06;229.43;;;72.47;;
17670;SDS011;8954;48.694;8.940;2022-09-12T05:23:34;226.27;;;69.50;;
17670;SDS011;8954;48.694;8.940;2022-09-12T05:26:01;222.53;;;67.80;;
17670;SDS011;8954;48.694;8.940;2022-09-12T05:28:30;218.67;;;66.30;;
17670;SDS011;8954;48.694;8.940;2022-09-12T05:31:01;221.23;;;67.93;;
17670;SDS011;8954;48.694;8.940;2022-09-12T05:33:48;222.00;;;66.57;;
17670;SDS011;8954;48.694;8.940;2022-09-12T05:36:18;225.83;;;68.43;;
17670;SDS011;8954;48.694;8.940;2022-09-12T05:38:46;221.83;;;67.30;;
17670;SDS011;8954;48.694;8.940;2022-09-12T05:41:19;234.77;;;74.53;;
17670;SDS011;8954;48.694;8.940;2022-09-12T05:43:52;226.63;;;68.97;;
17670;SDS011;8954;48.694;8.940;2022-09-12T05:46:24;223.47;;;67.90;;
17670;SDS011;8954;48.694;8.940;2022-09-12T05:48:52;228.33;;;70.17;;
17670;SDS011;8954;48.694;8.940;2022-09-12T05:51:28;226.27;;;69.30;;
17670;SDS011;8954;48.694;8.940;2022-09-12T05:53:58;229.87;;;70.60;;
17670;SDS011;8954;48.694;8.940;2022-09-12T05:56:26;227.10;;;70.00;;
17670;SDS011;8954;48.694;8.940;2022-09-12T05:58:58;230.37;;;72.47;;
17670;SDS011;8954;48.694;8.940;2022-09-12T06:01:37;234.57;;;72.53;;
17670;SDS011;8954;48.694;8.940;2022-09-12T06:04:04;232.03;;;72.47;;
17670;SDS011;8954;48.694;8.940;2022-09-12T06:06:31;233.57;;;72.37;;
17670;SDS011;8954;48.694;8.940;2022-09-12T06:09:00;234.43;;;73.83;;
17670;SDS011;8954;48.694;8.940;2022-09-12T06:11:29;241.27;;;77.50;;
17670;SDS011;8954;48.694;8.940;2022-09-12T06:13:57;231.93;;;72.27;;
17670;SDS011;8954;48.694;8.940;2022-09-12T06:16:25;234.17;;;74.67;;
17670;SDS011;8954;48.694;8.940;2022-09-12T06:18:53;233.47;;;73.00;;
17670;SDS011;8954;48.694;8.940;2022-09-12T06:21:27;236.73;;;75.93;;
17670;SDS011;8954;48.694;8.940;2022-09-12T06:23:55;234.33;;;73.87;;
17670;SDS011;8954;48.694;8.940;2022-09-12T06:26:25;236.40;;;74.63;;
17670;SDS011;8954;48.694;8.940;2022-09-12T06:28:52;237.87;;;75.13;;
17670;SDS011;8954;48.694;8.940;2022-09-12T06:31:19;239.40;;;77.73;;
17670;SDS011;8954;48.694;8.940;2022-09-12T06:33:50;249.70;;;82.33;;
17670;SDS011;8954;48.694;8.940;2022-09-12T06:36:21;245.67;;;80.63;;
17670;SDS011;8954;48.694;8.940;2022-09-12T06:38:53;240.33;;;78.27;;
17670;SDS011;8954;48.694;8.940;2022-09-12T06:41:21;244.37;;;80.10;;
17670;SDS011;8954;48.694;8.940;2022-09-12T06:43:47;244.20;;;81.70;;
17670;SDS011;8954;48.694;8.940;2022-09-12T06:46:13;245.90;;;82.63;;
17670;SDS011;8954;48.694;8.940;2022-09-12T06:48:38;246.93;;;83.03;;
17670;SDS011;8954;48.694;8.940;2022-09-12T06:51:05;253.07;;;88.70;;
17670;SDS011;8954;48.694;8.940;2022-09-12T06:53:35;249.07;;;83.37;;
17670;SDS011;8954;48.694;8.940;2022-09-12T06:58:31;251.80;;;85.77;;
17670;SDS011;8954;48.694;8.940;2022-09-12T07:01:04;256.63;;;88.97;;
17670;SDS011;8954;48.694;8.940;2022-09-12T07:03:32;255.27;;;87.03;;
17670;SDS011;8954;48.694;8.940;2022-09-12T07:06:08;253.83;;;88.93;;
17670;SDS011;8954;48.694;8.940;2022-09-12T07:08:36;258.43;;;91.30;;
17670;SDS011;8954;48.694;8.940;2022-09-12T07:13:38;258.67;;;90.50;;
17670;SDS011;8954;48.694;8.940;2022-09-12T07:16:04;256.27;;;89.87;;
17670;SDS011;8954;48.694;8.940;2022-09-12T07:18:31;258.40;;;91.83;;
17670;SDS011;8954;48.694;8.940;2022-09-12T07:21:01;264.90;;;96.00;;
17670;SDS011;8954;48.694;8.940;2022-09-12T07:23:28;261.57;;;96.00;;
17670;SDS011;8954;48.694;8.940;2022-09-12T07:25:54;265.70;;;98.47;;
17670;SDS011;8954;48.694;8.940;2022-09-12T07:28:25;267.73;;;99.63;;
17670;SDS011;8954;48.694;8.940;2022-09-12T07:30:51;267.30;;;101.00;;
17670;SDS011;8954;48.694;8.940;2022-09-12T07:33:21;276.20;;;107.07;;
17670;SDS011;8954;48.694;8.940;2022-09-12T07:35:48;278.70;;;113.83;;
17670;SDS011;8954;48.694;8.940;2022-09-12T07:38:14;283.73;;;123.77;;
17670;SDS011;8954;48.694;8.940;2022-09-12T07:40:41;296.63;;;145.57;;
17670;SDS011;8954;48.694;8.940;2022-09-12T07:43:07;300.38;;;166.40;;
17670;SDS011;8954;48.694;8.940;2022-09-12T07:45:32;303.17;;;200.07;;
17670;SDS011;8954;48.694;8.940;2022-09-12T07:47:58;309.58;;;240.35;;
17670;SDS011;8954;48.694;8.940;2022-09-12T07:50:24;322.52;;;286.15;;
17670;SDS011;8954;48.694;8.940;2022-09-12T07:52:52;356.48;;;320.67;;
17670;SDS011;8954;48.694;8.940;2022-09-12T07:55:18;395.23;;;358.30;;
17670;SDS011;8954;48.694;8.940;2022-09-12T07:57:47;442.88;;;404.00;;
17670;SDS011;8954;48.694;8.940;2022-09-12T08:00:14;463.23;;;424.67;;
17670;SDS011;8954;48.694;8.940;2022-09-12T08:02:41;556.58;;;524.30;;
17670;SDS011;8954;48.694;8.940;2022-09-12T08:05:07;523.97;;;483.85;;
17670;SDS011;8954;48.694;8.940;2022-09-12T08:07:33;548.30;;;507.67;;
17670;SDS011;8954;48.694;8.940;2022-09-12T08:09:59;631.92;;;600.55;;
17670;SDS011;8954;48.694;8.940;2022-09-12T08:12:28;590.50;;;547.13;;
17670;SDS011;8954;48.694;8.940;2022-09-12T08:14:56;757.58;;;716.88;;
17670;SDS011;8954;48.694;8.940;2022-09-12T08:17:22;641.78;;;597.10;;
17670;SDS011;8954;48.694;8.940;2022-09-12T08:19:47;641.63;;;598.17;;
17670;SDS011;8954;48.694;8.940;2022-09-12T08:22:13;720.63;;;686.27;;
17670;SDS011;8954;48.694;8.940;2022-09-12T08:24:39;671.20;;;627.60;;
17670;SDS011;8954;48.694;8.940;2022-09-12T08:27:06;666.83;;;623.58;;
17670;SDS011;8954;48.694;8.940;2022-09-12T08:29:32;770.37;;;732.47;;
17670;SDS011;8954;48.694;8.940;2022-09-12T08:31:57;684.65;;;640.47;;
17670;SDS011;8954;48.694;8.940;2022-09-12T08:34:23;676.25;;;632.35;;
17670;SDS011;8954;48.694;8.940;2022-09-12T08:36:50;799.95;;;759.13;;
17670;SDS011;8954;48.694;8.940;2022-09-12T08:39:18;688.78;;;643.00;;
17670;SDS011;8954;48.694;8.940;2022-09-12T08:41:47;680.15;;;636.35;;
17670;SDS011;8954;48.694;8.940;2022-09-12T08:44:57;683.42;;;640.72;;
17670;SDS011;8954;48.694;8.940;2022-09-12T08:47:35;662.40;;;617.08;;
17670;SDS011;8954;48.694;8.940;2022-09-12T08:57:58;676.60;;;633.78;;
17670;SDS011;8954;48.694;8.940;2022-09-12T09:00:25;672.83;;;632.60;;
17670;SDS011;8954;48.694;8.940;2022-09-12T09:03:28;663.28;;;625.45;;
17670;SDS011;8954;48.694;8.940;2022-09-12T09:08:44;671.53;;;633.78;;
17670;SDS011;8954;48.694;8.940;2022-09-12T09:14:13;807.83;;;768.75;;
17670;SDS011;8954;48.694;8.940;2022-09-12T09:17:07;713.10;;;671.85;;
17670;SDS011;8954;48.694;8.940;2022-09-12T09:19:38;665.88;;;629.70;;
17670;SDS011;8954;48.694;8.940;2022-09-12T09:22:25;658.53;;;622.92;;
17670;SDS011;8954;48.694;8.940;2022-09-12T09:24:54;589.58;;;564.67;;
17670;SDS011;8954;48.694;8.940;2022-09-12T09:27:32;708.20;;;669.03;;
17670;SDS011;8954;48.694;8.940;2022-09-12T09:30:14;687.92;;;649.90;;
17670;SDS011;8954;48.694;8.940;2022-09-12T09:32:41;671.08;;;634.85;;
17670;SDS011;8954;48.694;8.940;2022-09-12T09:35:17;722.22;;;689.55;;
17670;SDS011;8954;48.694;8.940;2022-09-12T09:37:48;741.08;;;695.50;;
17670;SDS011;8954;48.694;8.940;2022-09-12T09:40:58;735.42;;;691.60;;
17670;SDS011;8954;48.694;8.940;2022-09-12T09:43:28;709.85;;;669.17;;
17670;SDS011;8954;48.694;8.940;2022-09-12T09:45:55;794.22;;;755.97;;
17670;SDS011;8954;48.694;8.940;2022-09-12T09:48:30;736.13;;;691.40;;
17670;SDS011;8954;48.694;8.940;2022-09-12T09:51:02;742.17;;;707.40;;
17670;SDS011;8954;48.694;8.940;2022-09-12T09:53:33;737.53;;;691.60;;
17670;SDS011;8954;48.694;8.940;2022-09-12T09:56:02;770.50;;;734.08;;
17670;SDS011;8954;48.694;8.940;2022-09-12T09:58:34;722.42;;;679.05;;
17670;SDS011;8954;48.694;8.940;2022-09-12T10:01:04;727.22;;;682.28;;
17670;SDS011;8954;48.694;8.940;2022-09-12T10:03:36;807.38;;;767.25;;
17670;SDS011;8954;48.694;8.940;2022-09-12T10:06:07;737.35;;;691.63;;
17670;SDS011;8954;48.694;8.940;2022-09-12T10:09:07;721.33;;;676.38;;
17670;SDS011;8954;48.694;8.940;2022-09-12T10:11:44;718.08;;;675.08;;
17670;SDS011;8954;48.694;8.940;2022-09-12T10:16:55;696.75;;;657.78;;
17670;SDS011;8954;48.694;8.940;2022-09-12T10:19:23;709.85;;;669.83;;
17670;SDS011;8954;48.694;8.940;2022-09-12T10:22:01;716.80;;;674.58;;
17670;SDS011;8954;48.694;8.940;2022-09-12T10:24:32;705.53;;;664.08;;
17670;SDS011;8954;48.694;8.940;2022-09-12T10:29:33;708.42;;;668.45;;
17670;SDS011;8954;48.694;8.940;2022-09-12T10:32:09;666.17;;;636.75;;
17670;SDS011;8954;48.694;8.940;2022-09-12T10:34:38;723.90;;;682.42;;
17670;SDS011;8954;48.694;8.940;2022-09-12T10:37:17;706.92;;;666.60;;
17670;SDS011;8954;48.694;8.940;2022-09-12T10:39:49;722.38;;;680.03;;
17670;SDS011;8954;48.694;8.940;2022-09-12T10:42:17;711.90;;;669.53;;
17670;SDS011;8954;48.694;8.940;2022-09-12T10:47:55;717.17;;;671.58;;
17670;SDS011;8954;48.694;8.940;2022-09-12T10:50:30;717.38;;;672.00;;
17670;SDS011;8954;48.694;8.940;2022-09-12T10:53:13;843.72;;;799.17;;
17670;SDS011;8954;48.694;8.940;2022-09-12T11:01:49;807.43;;;763.03;;
17670;SDS011;8954;48.694;8.940;2022-09-12T11:09:46;814.05;;;771.25;;
17670;SDS011;8954;48.694;8.940;2022-09-12T11:18:15;852.28;;;803.67;;
17670;SDS011;8954;48.694;8.940;2022-09-12T11:21:18;710.85;;;663.13;;
17670;SDS011;8954;48.694;8.940;2022-09-12T11:34:09;701.55;;;654.05;;
17670;SDS011;8954;48.694;8.940;2022-09-12T11:39:15;690.85;;;643.15;;
17670;SDS011;8954;48.694;8.940;2022-09-12T11:41:49;676.75;;;629.75;;
17670;SDS011;8954;48.694;8.940;2022-09-12T11:46:45;673.00;;;625.97;;
17670;SDS011;8954;48.694;8.940;2022-09-12T11:49:16;674.83;;;627.88;;
17670;SDS011;8954;48.694;8.940;2022-09-12T11:54:52;689.65;;;643.00;;
17670;SDS011;8954;48.694;8.940;2022-09-12T11:57:55;693.50;;;647.00;;
17670;SDS011;8954;48.694;8.940;2022-09-12T12:00:26;698.45;;;652.20;;
17670;SDS011;8954;48.694;8.940;2022-09-12T12:08:03;704.15;;;656.75;;
17670;SDS011;8954;48.694;8.940;2022-09-12T12:10:42;700.72;;;653.30;;
17670;SDS011;8954;48.694;8.940;2022-09-12T12:15:47;698.08;;;651.25;;
17670;SDS011;8954;48.694;8.940;2022-09-12T12:18:37;695.00;;;647.90;;
17670;SDS011;8954;48.694;8.940;2022-09-12T12:21:17;829.38;;;780.90;;
17670;SDS011;8954;48.694;8.940;2022-09-12T12:24:38;707.05;;;659.38;;
17670;SDS011;8954;48.694;8.940;2022-09-12T12:44:59;661.70;;;614.85;;
17670;SDS011;8954;48.694;8.940;2022-09-12T12:47:26;641.65;;;595.45;;
17670;SDS011;8954;48.694;8.940;2022-09-12T12:50:07;632.20;;;586.03;;
17670;SDS011;8954;48.694;8.940;2022-09-12T12:55:31;759.13;;;708.53;;
17670;SDS011;8954;48.694;8.940;2022-09-12T12:58:03;627.95;;;581.95;;
17670;SDS011;8954;48.694;8.940;2022-09-12T13:05:40;601.05;;;555.55;;
17670;SDS011;8954;48.694;8.940;2022-09-12T13:10:48;769.60;;;718.70;;
17670;SDS011;8954;48.694;8.940;2022-09-12T13:13:22;751.58;;;701.38;;
17670;SDS011;8954;48.694;8.940;2022-09-12T13:16:01;738.00;;;688.00;;
17670;SDS011;8954;48.694;8.940;2022-09-12T13:18:27;615.47;;;569.30;;
17670;SDS011;8954;48.694;8.940;2022-09-12T13:21:17;598.33;;;552.67;;
17670;SDS011;8954;48.694;8.940;2022-09-12T13:23:44;585.15;;;539.88;;
17670;SDS011;8954;48.694;8.940;2022-09-12T13:26:24;565.63;;;520.83;;
17670;SDS011;8954;48.694;8.940;2022-09-12T13:29:07;575.90;;;530.85;;
17670;SDS011;8954;48.694;8.940;2022-09-12T13:31:34;564.35;;;519.47;;
17670;SDS011;8954;48.694;8.940;2022-09-12T13:34:00;567.45;;;522.47;;
17670;SDS011;8954;48.694;8.940;2022-09-12T13:45:05;563.47;;;518.63;;
17670;SDS011;8954;48.694;8.940;2022-09-12T13:47:49;562.20;;;517.33;;
17670;SDS011;8954;48.694;8.940;2022-09-12T13:52:54;565.47;;;520.67;;
17670;SDS011;8954;48.694;8.940;2022-09-12T13:55:29;566.80;;;521.58;;
17670;SDS011;8954;48.694;8.940;2022-09-12T13:58:03;553.35;;;508.55;;
17670;SDS011;8954;48.694;8.940;2022-09-12T14:00:39;686.50;;;637.13;;
17670;SDS011;8954;48.694;8.940;2022-09-12T14:03:27;574.67;;;529.13;;
17670;SDS011;8954;48.694;8.940;2022-09-12T14:06:11;542.63;;;497.83;;
17670;SDS011;8954;48.694;8.940;2022-09-12T14:08:38;542.92;;;498.17;;
17670;SDS011;8954;48.694;8.940;2022-09-12T14:11:08;529.10;;;484.65;;
17670;SDS011;8954;48.694;8.940;2022-09-12T14:13:35;512.60;;;468.60;;
17670;SDS011;8954;48.694;8.940;2022-09-12T14:16:03;516.42;;;472.00;;
17670;SDS011;8954;48.694;8.940;2022-09-12T14:18:35;503.45;;;459.65;;
17670;SDS011;8954;48.694;8.940;2022-09-12T14:21:19;514.15;;;469.73;;
17670;SDS011;8954;48.694;8.940;2022-09-12T14:23:59;492.77;;;449.23;;
17670;SDS011;8954;48.694;8.940;2022-09-12T14:26:28;494.13;;;450.38;;
17670;SDS011;8954;48.694;8.940;2022-09-12T14:28:58;660.33;;;611.55;;
17670;SDS011;8954;48.694;8.940;2022-09-12T14:31:32;663.33;;;614.53;;
17670;SDS011;8954;48.694;8.940;2022-09-12T14:34:13;679.42;;;630.42;;
17670;SDS011;8954;48.694;8.940;2022-09-12T14:42:03;513.72;;;469.52;;
17670;SDS011;8954;48.694;8.940;2022-09-12T14:44:54;493.92;;;450.08;;
17670;SDS011;8954;48.694;8.940;2022-09-12T14:47:38;491.77;;;448.08;;
17670;SDS011;8954;48.694;8.940;2022-09-12T14:50:19;484.38;;;440.63;;
17670;SDS011;8954;48.694;8.940;2022-09-12T14:53:09;456.30;;;413.05;;
17670;SDS011;8954;48.694;8.940;2022-09-12T14:56:08;435.60;;;392.83;;
17670;SDS011;8954;48.694;8.940;2022-09-12T14:58:34;418.13;;;375.65;;
17670;SDS011;8954;48.694;8.940;2022-09-12T15:06:03;383.48;;;341.63;;
17670;SDS011;8954;48.694;8.940;2022-09-12T15:08:32;371.35;;;324.55;;
17670;SDS011;8954;48.694;8.940;2022-09-12T15:10:58;370.70;;;319.17;;
17670;SDS011;8954;48.694;8.940;2022-09-12T15:13:25;370.40;;;308.00;;
17670;SDS011;8954;48.694;8.940;2022-09-12T15:15:53;367.38;;;296.80;;
17670;SDS011;8954;48.694;8.940;2022-09-12T15:18:21;367.10;;;291.05;;
17670;SDS011;8954;48.694;8.940;2022-09-12T15:20:49;364.60;;;283.42;;
17670;SDS011;8954;48.694;8.940;2022-09-12T15:23:28;365.17;;;277.38;;
17670;SDS011;8954;48.694;8.940;2022-09-12T15:26:05;359.92;;;264.58;;
17670;SDS011;8954;48.694;8.940;2022-09-12T15:28:32;358.55;;;261.17;;
17670;SDS011;8954;48.694;8.940;2022-09-12T15:31:44;359.33;;;255.60;;
17670;SDS011;8954;48.694;8.940;2022-09-12T15:33:51;358.63;;;245.90;;
17670;SDS011;8954;48.694;8.940;2022-09-12T15:36:19;361.73;;;249.00;;
17670;SDS011;8954;48.694;8.940;2022-09-12T15:38:47;354.60;;;238.65;;
17670;SDS011;8954;48.694;8.940;2022-09-12T15:41:15;360.35;;;240.18;;
17670;SDS011;8954;48.694;8.940;2022-09-12T15:43:42;363.35;;;240.30;;
17670;SDS011;8954;48.694;8.940;2022-09-12T15:46:10;357.95;;;234.27;;
17670;SDS011;8954;48.694;8.940;2022-09-12T15:48:37;355.90;;;229.13;;
17670;SDS011;8954;48.694;8.940;2022-09-12T15:51:03;353.47;;;229.27;;
17670;SDS011;8954;48.694;8.940;2022-09-12T15:53:30;351.10;;;222.05;;
17670;SDS011;8954;48.694;8.940;2022-09-12T15:55:57;357.73;;;236.27;;
17670;SDS011;8954;48.694;8.940;2022-09-12T15:58:22;354.70;;;224.83;;
17670;SDS011;8954;48.694;8.940;2022-09-12T16:00:48;357.00;;;225.83;;
17670;SDS011;8954;48.694;8.940;2022-09-12T16:03:21;353.00;;;225.77;;
17670;SDS011;8954;48.694;8.940;2022-09-12T16:05:49;356.53;;;223.10;;
17670;SDS011;8954;48.694;8.940;2022-09-12T16:08:23;354.33;;;223.73;;
17670;SDS011;8954;48.694;8.940;2022-09-12T16:10:54;355.43;;;222.70;;
17670;SDS011;8954;48.694;8.940;2022-09-12T16:13:24;357.50;;;222.57;;
17670;SDS011;8954;48.694;8.940;2022-09-12T16:15:51;351.63;;;213.30;;
17670;SDS011;8954;48.694;8.940;2022-09-12T16:18:20;354.23;;;217.00;;
17670;SDS011;8954;48.694;8.940;2022-09-12T16:20:46;355.43;;;214.77;;
17670;SDS011;8954;48.694;8.940;2022-09-12T16:23:15;351.53;;;212.70;;
17670;SDS011;8954;48.694;8.940;2022-09-12T16:25:41;351.63;;;208.57;;
17670;SDS011;8954;48.694;8.940;2022-09-12T16:28:08;351.50;;;212.43;;
17670;SDS011;8954;48.694;8.940;2022-09-12T16:30:34;356.67;;;210.97;;
17670;SDS011;8954;48.694;8.940;2022-09-12T16:33:00;349.17;;;205.47;;
17670;SDS011;8954;48.694;8.940;2022-09-12T16:35:26;351.43;;;209.87;;
17670;SDS011;8954;48.694;8.940;2022-09-12T16:37:53;348.20;;;200.53;;
17670;SDS011;8954;48.694;8.940;2022-09-12T16:40:19;348.63;;;203.97;;
17670;SDS011;8954;48.694;8.940;2022-09-12T16:42:45;357.10;;;210.93;;
17670;SDS011;8954;48.694;8.940;2022-09-12T16:45:11;353.50;;;204.37;;
17670;SDS011;8954;48.694;8.940;2022-09-12T16:47:38;349.83;;;202.33;;
17670;SDS011;8954;48.694;8.940;2022-09-12T16:50:04;351.70;;;206.17;;
17670;SDS011;8954;48.694;8.940;2022-09-12T16:52:32;348.40;;;198.33;;
17670;SDS011;8954;48.694;8.940;2022-09-12T16:54:58;346.77;;;189.77;;
17670;SDS011;8954;48.694;8.940;2022-09-12T16:57:24;346.47;;;190.57;;
17670;SDS011;8954;48.694;8.940;2022-09-12T16:59:49;349.03;;;187.63;;
17670;SDS011;8954;48.694;8.940;2022-09-12T17:02:16;348.37;;;192.87;;
17670;SDS011;8954;48.694;8.940;2022-09-12T17:04:42;347.10;;;189.50;;
17670;SDS011;8954;48.694;8.940;2022-09-12T17:07:08;347.80;;;187.63;;
17670;SDS011;8954;48.694;8.940;2022-09-12T17:09:34;349.33;;;184.23;;
17670;SDS011;8954;48.694;8.940;2022-09-12T17:11:59;344.90;;;179.57;;
17670;SDS011;8954;48.694;8.940;2022-09-12T17:14:25;348.83;;;187.90;;
17670;SDS011;8954;48.694;8.940;2022-09-12T17:16:51;348.00;;;178.53;;
17670;SDS011;8954;48.694;8.940;2022-09-12T17:19:24;344.17;;;173.27;;
17670;SDS011;8954;48.694;8.940;2022-09-12T17:21:52;345.07;;;174.57;;
17670;SDS011;8954;48.694;8.940;2022-09-12T17:24:18;342.70;;;167.77;;
17670;SDS011;8954;48.694;8.940;2022-09-12T17:26:45;348.77;;;175.50;;
17670;SDS011;8954;48.694;8.940;2022-09-12T17:29:11;347.80;;;172.37;;
17670;SDS011;8954;48.694;8.940;2022-09-12T17:31:38;343.50;;;169.17;;
17670;SDS011;8954;48.694;8.940;2022-09-12T17:34:04;343.67;;;167.30;;